createdAt,value
2024-03-07T00:03:54.912Z,4.96
2024-03-07T00:08:57.919Z,4.91
2024-03-07T00:14:00.909Z,4.88
2024-03-07T00:19:05.265Z,4.84
2024-03-07T00:24:08.347Z,4.68
2024-03-07T00:29:11.711Z,4.58
2024-03-07T00:34:24.493Z,4.52
2024-03-07T00:39:29.133Z,4.42
2024-03-07T00:44:32.305Z,4.31
2024-03-07T00:49:37.480Z,4.23
2024-03-07T00:54:40.459Z,4.13
2024-03-07T00:59:44.227Z,4.09
2024-03-07T01:04:49.636Z,3.94
2024-03-07T01:09:52.792Z,3.83
2024-03-07T01:14:55.933Z,3.69
2024-03-07T01:26:47.019Z,3.52
2024-03-07T01:31:50.297Z,3.50
2024-03-07T01:36:53.151Z,3.50
2024-03-07T01:41:57.984Z,3.50
2024-03-07T01:47:04.576Z,3.51
2024-03-07T01:52:08.182Z,3.54
2024-03-07T01:57:14.379Z,3.51
2024-03-07T02:02:17.370Z,3.43
2024-03-07T02:07:20.351Z,3.34
2024-03-07T02:12:25.478Z,3.21
2024-03-07T02:17:29.084Z,3.14
2024-03-07T02:22:33.366Z,3.01
2024-03-07T02:27:36.211Z,2.96
2024-03-07T02:32:39.598Z,2.90
2024-03-07T02:37:43.946Z,2.80
2024-03-07T02:42:46.808Z,2.78
2024-03-07T02:47:49.776Z,2.65
2024-03-07T02:52:54.483Z,2.64
2024-03-07T02:57:58.779Z,2.65
2024-03-07T03:03:01.751Z,2.67
2024-03-07T03:08:08.162Z,2.62
2024-03-07T03:13:11.214Z,2.62
2024-03-07T03:18:14.850Z,2.63
2024-03-07T03:23:21.432Z,2.55
2024-03-07T03:28:26.102Z,2.46
2024-03-07T03:33:29.124Z,2.42
2024-03-07T03:38:33.551Z,2.38
2024-03-07T03:43:36.586Z,2.40
2024-03-07T03:48:40.799Z,2.32
2024-03-07T03:53:45.519Z,2.26
2024-03-07T03:58:48.468Z,2.24
2024-03-07T04:03:51.823Z,2.25
2024-03-07T04:08:56.709Z,2.17
2024-03-07T04:13:59.764Z,2.06
2024-03-07T04:19:02.710Z,1.86
2024-03-07T04:24:07.296Z,1.82
2024-03-07T04:29:10.346Z,1.87
2024-03-07T04:34:13.333Z,1.95
2024-03-07T04:39:25.958Z,2.20
2024-03-07T04:44:29.073Z,2.40
2024-03-07T04:49:33.663Z,2.45
2024-03-07T04:54:38.291Z,2.61
2024-03-07T04:59:42.115Z,2.78
2024-03-07T05:04:45.193Z,2.65
2024-03-07T05:09:49.877Z,2.31
2024-03-07T05:14:53.062Z,2.30
2024-03-07T05:19:56.065Z,2.41
2024-03-07T05:25:00.735Z,2.09
2024-03-07T05:30:05.876Z,2.08
2024-03-07T05:35:12.340Z,1.89
2024-03-07T05:40:16.977Z,2.12
2024-03-07T05:45:20.216Z,2.24
2024-03-07T05:50:23.375Z,2.54
2024-03-07T05:55:27.895Z,2.67
2024-03-07T06:00:31.172Z,2.73
2024-03-07T06:05:34.221Z,2.74
2024-03-07T06:10:41.035Z,2.81
2024-03-07T06:15:47.083Z,2.91
2024-03-07T06:20:50.181Z,3.09
2024-03-07T06:25:55.514Z,3.21
2024-03-07T06:30:58.700Z,3.31
2024-03-07T06:36:02.246Z,3.36
2024-03-07T06:41:07.171Z,3.34
2024-03-07T06:46:10.832Z,3.20
2024-03-07T06:51:14.185Z,3.20
2024-03-07T06:56:19.708Z,3.23
2024-03-07T07:01:23.337Z,3.50
2024-03-07T07:06:27.250Z,3.49
2024-03-07T07:11:34.884Z,3.25
2024-03-07T07:16:42.279Z,3.35
2024-03-07T07:21:45.654Z,3.77
2024-03-07T07:26:50.482Z,4.37
2024-03-07T07:31:53.605Z,4.71
2024-03-07T07:36:56.604Z,5.06
2024-03-07T07:42:01.379Z,5.24
2024-03-07T07:47:05.014Z,4.98
2024-03-07T07:52:09.721Z,4.77
2024-03-07T07:57:14.226Z,4.59
2024-03-07T08:02:17.240Z,4.58
2024-03-07T08:07:20.941Z,4.73
2024-03-07T08:12:25.558Z,4.86
2024-03-07T08:17:29.115Z,4.98
2024-03-07T08:22:32.208Z,5.08
2024-03-07T08:27:36.573Z,5.12
2024-03-07T08:32:39.746Z,5.01
2024-03-07T08:37:43.937Z,4.94
2024-03-07T08:42:49.472Z,4.74
2024-03-07T08:47:55.555Z,4.72
2024-03-07T08:52:58.778Z,4.84
2024-03-07T08:58:03.092Z,4.71
2024-03-07T09:03:10.741Z,4.77
2024-03-07T09:08:14.846Z,4.86
2024-03-07T09:13:19.210Z,4.94
2024-03-07T09:18:23.938Z,4.97
2024-03-07T09:23:27.022Z,5.16
2024-03-07T09:28:31.338Z,5.32
2024-03-07T09:33:35.497Z,5.46
2024-03-07T09:38:38.506Z,5.58
2024-03-07T09:43:44.809Z,5.60
2024-03-07T09:48:48.739Z,5.48
2024-03-07T09:53:53.555Z,5.42
2024-03-07T09:59:00.356Z,5.49
2024-03-07T10:04:12.581Z,5.44
2024-03-07T10:09:15.641Z,5.18
2024-03-07T10:14:20.019Z,5.13
2024-03-07T10:19:23.277Z,5.16
2024-03-07T10:24:26.773Z,5.27
2024-03-07T10:29:31.303Z,5.22
2024-03-07T10:34:36.171Z,5.63
2024-03-07T10:39:39.143Z,5.82
2024-03-07T10:44:47.008Z,5.93
2024-03-07T10:50:01.812Z,6.09
2024-03-07T10:55:17.302Z,6.32
2024-03-07T11:00:37.632Z,6.78
2024-03-07T11:05:43.639Z,7.14
2024-03-07T11:10:48.440Z,7.00
2024-03-07T11:15:58.489Z,6.76
2024-03-07T11:21:01.634Z,6.93
2024-03-07T11:26:12.226Z,8.44
2024-03-07T11:31:17.881Z,9.79
2024-03-07T11:36:44.557Z,8.64
2024-03-07T11:41:49.340Z,7.68
2024-03-07T11:46:54.032Z,7.03
2024-03-07T11:51:57.019Z,6.98
2024-03-07T11:57:01.572Z,7.18
2024-03-07T12:02:06.272Z,7.15
2024-03-07T12:07:11.485Z,7.48
2024-03-07T12:12:14.713Z,8.96
2024-03-07T12:17:19.681Z,9.17
2024-03-07T12:22:26.387Z,8.57
2024-03-07T12:27:31.040Z,8.13
2024-03-07T12:32:35.900Z,10.38
2024-03-07T12:37:39.092Z,11.68
2024-03-07T12:42:44.453Z,12.25
2024-03-07T12:47:52.008Z,10.82
2024-03-07T12:52:56.385Z,10.14
2024-03-07T12:57:59.718Z,9.11
2024-03-07T13:03:04.410Z,8.78
2024-03-07T13:08:10.103Z,9.18
2024-03-07T13:13:13.316Z,9.41
2024-03-07T13:18:17.861Z,10.63
2024-03-07T13:23:21.314Z,9.94
2024-03-07T13:28:26.144Z,9.23
2024-03-07T13:33:30.871Z,8.88
2024-03-07T13:38:34.662Z,11.93
2024-03-07T13:43:38.840Z,14.49
2024-03-07T13:48:44.519Z,14.87
2024-03-07T13:53:52.093Z,12.43
2024-03-07T13:59:16.643Z,10.63
2024-03-07T14:04:47.986Z,9.49
2024-03-07T14:10:22.638Z,11.14
2024-03-07T14:15:57.925Z,10.85
2024-03-07T14:21:17.783Z,10.19
2024-03-07T14:26:52.219Z,10.90
2024-03-07T14:31:55.305Z,9.94
2024-03-07T14:37:11.538Z,9.12
2024-03-07T14:42:16.808Z,8.42
2024-03-07T14:47:22.577Z,8.91
2024-03-07T14:52:30.978Z,9.29
2024-03-07T14:57:33.968Z,11.10
2024-03-07T15:02:38.657Z,12.03
2024-03-07T15:07:43.148Z,10.49
2024-03-07T15:12:47.916Z,9.77
2024-03-07T15:17:51.463Z,9.54
2024-03-07T15:22:59.052Z,9.56
2024-03-07T15:28:02.612Z,9.28
2024-03-07T15:33:06.937Z,9.04
2024-03-07T15:38:12.279Z,8.68
2024-03-07T15:43:15.417Z,8.60
2024-03-07T15:48:21.825Z,8.59
2024-03-07T15:53:28.373Z,9.27
2024-03-07T15:58:31.694Z,9.05
2024-03-07T16:03:34.732Z,8.56
2024-03-07T16:08:40.556Z,7.72
2024-03-07T16:13:45.094Z,7.34
2024-03-07T16:18:48.128Z,7.15
2024-03-07T16:23:54.809Z,7.24
2024-03-07T16:28:57.854Z,6.99
2024-03-07T16:34:01.115Z,6.91
2024-03-07T16:39:13.084Z,7.09
2024-03-07T16:44:16.183Z,7.04
2024-03-07T16:49:19.303Z,7.00
2024-03-07T16:54:24.893Z,6.88
2024-03-07T16:59:27.933Z,6.71
2024-03-07T17:04:30.925Z,6.44
2024-03-07T17:09:35.486Z,6.20
2024-03-07T17:14:44.845Z,6.02
2024-03-07T17:19:48.731Z,5.81
2024-03-07T17:24:54.069Z,5.65
2024-03-07T17:29:57.432Z,5.52
2024-03-07T17:35:01.097Z,5.45
2024-03-07T17:40:06.386Z,5.40
2024-03-07T17:45:12.318Z,5.34
2024-03-07T17:50:20.506Z,5.23
2024-03-07T17:55:25.415Z,5.21
2024-03-07T18:00:28.858Z,5.18
2024-03-07T18:05:32.101Z,5.12
2024-03-07T18:10:37.148Z,5.06
2024-03-07T18:15:40.812Z,5.07
2024-03-07T18:20:45.978Z,4.96
2024-03-07T18:25:52.216Z,4.90
2024-03-07T18:31:01.081Z,4.80
2024-03-07T18:36:07.103Z,4.71
2024-03-07T18:41:13.114Z,4.58
2024-03-07T18:46:17.822Z,4.48
2024-03-07T18:51:24.167Z,4.46
2024-03-07T18:56:28.963Z,4.42
2024-03-07T19:01:33.106Z,4.36
2024-03-07T19:06:39.928Z,4.30
2024-03-07T19:11:49.298Z,4.28
2024-03-07T19:16:54.199Z,4.29
2024-03-07T19:21:57.373Z,4.27
2024-03-07T19:27:02.028Z,4.24
2024-03-07T19:32:05.549Z,4.29
2024-03-07T19:37:10.656Z,4.22
2024-03-07T19:42:15.123Z,4.12
2024-03-07T19:47:18.193Z,4.05
2024-03-07T19:52:21.408Z,3.96
2024-03-07T19:57:28.966Z,3.91
2024-03-07T20:02:34.826Z,3.90
2024-03-07T20:07:38.670Z,3.90
2024-03-07T20:12:44.562Z,3.86
2024-03-07T20:17:49.702Z,3.79
2024-03-07T20:22:54.668Z,3.78
2024-03-07T20:27:59.199Z,3.79
2024-03-07T20:33:02.553Z,3.78
2024-03-07T20:38:06.991Z,3.70
2024-03-07T20:43:12.046Z,3.67
2024-03-07T20:48:15.357Z,3.58
2024-03-07T20:53:18.591Z,3.53
2024-03-07T20:58:23.413Z,3.46
2024-03-07T21:03:28.486Z,3.37
2024-03-07T21:08:35.481Z,3.27
2024-03-07T21:13:41.956Z,3.21
2024-03-07T21:18:45.068Z,3.21
2024-03-07T21:23:49.049Z,3.22
2024-03-07T21:28:55.169Z,3.21
2024-03-07T21:33:58.770Z,3.10
2024-03-07T21:39:02.218Z,3.08
2024-03-07T21:44:10.005Z,3.01
2024-03-07T21:49:13.435Z,2.96
2024-03-07T21:54:18.477Z,2.96
2024-03-07T21:59:22.996Z,3.01
2024-03-07T22:04:26.372Z,3.00
2024-03-07T22:09:29.729Z,2.89
2024-03-07T22:14:35.324Z,2.79
2024-03-07T22:19:39.471Z,2.70
2024-03-07T22:24:46.461Z,2.56
2024-03-07T22:29:51.030Z,2.62
2024-03-07T22:34:55.337Z,2.59
2024-03-07T22:39:58.485Z,2.51
2024-03-07T22:45:03.335Z,2.42
2024-03-07T22:50:13.762Z,2.33
2024-03-07T22:55:26.461Z,2.26
2024-03-07T23:00:33.278Z,2.12
2024-03-07T23:05:36.690Z,2.07
2024-03-07T23:10:39.766Z,2.04
2024-03-07T23:15:44.433Z,2.01
2024-03-07T23:20:47.509Z,1.90
2024-03-07T23:25:50.716Z,1.80
2024-03-07T23:30:55.055Z,1.86
2024-03-07T23:35:58.024Z,1.81
2024-03-07T23:41:02.129Z,1.87
2024-03-07T23:46:06.646Z,1.92
2024-03-07T23:51:11.587Z,1.95
2024-03-07T23:56:14.667Z,1.96
